Time;durP1;ratioP1;P1;durP2;ratioP2;P2;SDS_P1;SDS_P2;PMS_P1;PMS_P2;Temp;Humidity;BMP_temperature;BMP_pressure;BME280_temperature;BME280_humidity;BME280_pressure;Samples;Min_cycle;Max_cycle;Signal;HPM_P1;HPM_P2
2023/07/27 04:03:14;;;;;;;1.33;1.30;;;13.00;97.30;;;;;;4907490;29;20511;-88
2023/07/27 04:05:40;;;;;;;1.20;1.10;;;13.10;97.30;;;;;;4915203;29;20433;-87
2023/07/27 04:08:05;;;;;;;2.20;1.43;;;13.10;97.30;;;;;;4899415;29;20798;-88
2023/07/27 04:10:33;;;;;;;2.53;2.23;;;13.20;97.30;;;;;;4930798;29;20196;-88
2023/07/27 04:12:58;;;;;;;4.63;1.67;;;13.20;97.30;;;;;;4915197;29;20185;-88
2023/07/27 04:15:24;;;;;;;2.07;1.93;;;13.30;97.30;;;;;;4925552;29;20519;-88
2023/07/27 04:17:55;;;;;;;1.43;1.33;;;13.40;97.30;;;;;;4920598;29;20185;-88
2023/07/27 04:20:22;;;;;;;6.00;1.93;;;13.40;97.30;;;;;;4917649;29;20230;-87
2023/07/27 04:22:48;;;;;;;1.73;1.57;;;13.40;97.30;;;;;;4911714;29;20869;-87
2023/07/27 04:25:13;;;;;;;1.40;1.30;;;13.50;97.30;;;;;;4911262;29;20524;-87
2023/07/27 04:27:41;;;;;;;1.20;1.13;;;13.50;97.30;;;;;;4911492;29;20217;-87
2023/07/27 04:30:07;;;;;;;1.20;1.10;;;13.60;97.30;;;;;;4911343;29;20253;-87
2023/07/27 04:32:32;;;;;;;1.20;1.10;;;13.60;97.30;;;;;;4911342;29;20453;-87
2023/07/27 04:34:58;;;;;;;1.50;1.40;;;13.70;97.30;;;;;;4920985;29;20793;-87
2023/07/27 04:37:23;;;;;;;1.43;1.43;;;13.70;97.30;;;;;;4931574;29;20181;-87
2023/07/27 04:39:49;;;;;;;1.20;1.10;;;13.80;97.30;;;;;;4930286;29;20207;-87
2023/07/27 04:42:14;;;;;;;1.33;1.07;;;13.80;97.30;;;;;;4941592;29;20216;-87
2023/07/27 04:44:40;;;;;;;1.53;1.50;;;13.90;97.30;;;;;;4934362;29;20199;-87
2023/07/27 04:47:06;;;;;;;1.77;1.30;;;14.00;97.30;;;;;;4933784;29;20243;-88
2023/07/27 04:49:31;;;;;;;1.20;1.10;;;14.00;97.30;;;;;;4928196;29;20184;-87
2023/07/27 04:51:57;;;;;;;0.93;0.87;;;14.10;97.30;;;;;;4930419;29;20270;-87
2023/07/27 04:54:22;;;;;;;1.20;1.10;;;14.10;97.30;;;;;;4927608;29;20211;-87
2023/07/27 04:56:48;;;;;;;1.53;1.43;;;14.20;97.30;;;;;;4924865;29;20189;-87
2023/07/27 04:59:13;;;;;;;1.70;1.60;;;14.20;97.30;;;;;;4915076;29;20189;-87
2023/07/27 05:01:39;;;;;;;1.40;1.30;;;14.30;97.30;;;;;;4920336;29;20325;-87
2023/07/27 05:04:05;;;;;;;1.50;1.40;;;14.30;97.30;;;;;;4932020;29;20191;-87
2023/07/27 05:06:30;;;;;;;1.50;1.40;;;14.30;97.30;;;;;;4943092;28;20642;-87
2023/07/27 05:08:56;;;;;;;1.07;1.00;;;14.40;97.30;;;;;;4929631;29;20251;-87
2023/07/27 05:11:24;;;;;;;7.40;1.50;;;14.50;97.30;;;;;;4934377;28;20200;-87
2023/07/27 05:13:57;;;;;;;1.57;1.50;;;14.50;97.30;;;;;;4948741;28;20231;-87
2023/07/27 05:16:25;;;;;;;1.37;1.27;;;14.50;97.30;;;;;;4930240;29;20443;-87
2023/07/27 05:18:52;;;;;;;2.23;2.07;;;14.60;97.30;;;;;;4930042;29;20480;-87
2023/07/27 05:21:18;;;;;;;1.50;1.40;;;14.60;97.30;;;;;;4936391;28;21017;-87
2023/07/27 05:23:43;;;;;;;1.57;1.47;;;14.70;97.30;;;;;;4937136;29;20435;-87
2023/07/27 05:26:09;;;;;;;1.40;1.37;;;14.70;97.30;;;;;;4937966;29;20211;-88
2023/07/27 05:28:34;;;;;;;1.67;1.57;;;14.70;97.30;;;;;;4915141;29;20192;-87
2023/07/27 05:31:00;;;;;;;2.20;1.20;;;14.80;97.30;;;;;;4937218;29;20211;-87
2023/07/27 05:33:25;;;;;;;1.10;1.00;;;14.80;97.30;;;;;;4934710;29;20188;-88
2023/07/27 05:35:51;;;;;;;1.70;1.60;;;14.90;97.30;;;;;;4947803;28;20749;-87
2023/07/27 05:38:17;;;;;;;1.03;0.97;;;14.90;97.30;;;;;;4933533;29;20199;-87
2023/07/27 05:40:43;;;;;;;1.40;1.30;;;14.90;97.30;;;;;;4940927;29;20231;-87
2023/07/27 05:43:09;;;;;;;3.70;1.37;;;15.00;97.30;;;;;;4925050;29;20458;-87
2023/07/27 05:45:37;;;;;;;1.30;1.23;;;15.00;97.30;;;;;;4934219;29;20577;-88
2023/07/27 05:48:06;;;;;;;1.27;1.17;;;15.10;97.30;;;;;;4914417;29;20184;-87
2023/07/27 05:50:34;;;;;;;5.40;1.70;;;15.10;97.30;;;;;;4934654;29;21005;-88
2023/07/27 05:52:59;;;;;;;1.07;1.00;;;15.10;97.30;;;;;;4948437;29;20447;-87
2023/07/27 05:55:25;;;;;;;1.23;1.13;;;15.20;97.30;;;;;;4925931;29;20415;-87
2023/07/27 05:57:55;;;;;;;1.30;1.20;;;15.20;97.30;;;;;;4931085;29;20192;-87
2023/07/27 06:00:26;;;;;;;1.50;1.40;;;15.20;97.30;;;;;;4926198;29;20602;-87
2023/07/27 06:02:53;;;;;;;1.47;1.40;;;15.30;97.30;;;;;;4931793;29;20911;-87
2023/07/27 06:05:19;;;;;;;1.37;1.20;;;15.30;97.30;;;;;;4932751;29;20430;-87
2023/07/27 06:07:44;;;;;;;1.70;1.60;;;15.30;97.30;;;;;;4933026;29;20877;-87
2023/07/27 06:10:11;;;;;;;2.10;1.73;;;15.30;97.30;;;;;;4935712;29;20188;-87
2023/07/27 06:12:37;;;;;;;14.53;2.20;;;15.40;97.30;;;;;;4933509;29;20230;-87
2023/07/27 06:15:03;;;;;;;2.30;1.53;;;15.50;97.30;;;;;;4930831;28;20448;-87
2023/07/27 06:17:28;;;;;;;4.70;2.00;;;15.50;97.30;;;;;;4934355;29;20180;-87
2023/07/27 06:19:54;;;;;;;1.40;1.30;;;15.60;97.30;;;;;;4927746;29;20643;-87
2023/07/27 06:22:19;;;;;;;1.17;1.10;;;15.70;97.30;;;;;;4927255;29;20227;-87
2023/07/27 06:24:45;;;;;;;3.30;1.80;;;15.80;97.30;;;;;;4934648;29;20194;-87
2023/07/27 06:27:11;;;;;;;1.10;1.00;;;15.80;97.30;;;;;;4936451;28;20950;-87
2023/07/27 06:29:36;;;;;;;4.43;3.07;;;15.90;97.30;;;;;;4927602;29;20250;-87
2023/07/27 06:32:04;;;;;;;3.00;2.30;;;15.90;97.30;;;;;;4915894;29;20679;-87
2023/07/27 06:34:29;;;;;;;1.30;1.20;;;16.00;97.30;;;;;;4924011;29;20295;-87
2023/07/27 06:36:55;;;;;;;1.20;1.10;;;16.00;97.30;;;;;;4938574;29;20531;-87
2023/07/27 06:39:20;;;;;;;4.20;2.90;;;16.00;97.30;;;;;;4928646;29;20281;-87
2023/07/27 06:41:46;;;;;;;0.97;0.87;;;16.10;97.30;;;;;;4942255;29;20208;-85
2023/07/27 06:44:11;;;;;;;1.00;0.90;;;16.10;97.30;;;;;;4937149;28;20218;-87
2023/07/27 06:46:37;;;;;;;1.10;1.00;;;16.20;97.30;;;;;;4934040;29;20294;-87
2023/07/27 06:49:03;;;;;;;2.33;1.83;;;16.20;97.30;;;;;;4930369;28;20625;-87
2023/07/27 06:51:28;;;;;;;1.30;1.20;;;16.30;97.30;;;;;;4921567;29;20211;-87
2023/07/27 06:53:54;;;;;;;1.27;1.17;;;16.30;97.30;;;;;;4936711;29;20267;-87
2023/07/27 06:56:22;;;;;;;1.70;1.60;;;16.40;97.30;;;;;;4928668;29;20189;-87
2023/07/27 06:58:48;;;;;;;1.70;1.47;;;16.40;97.30;;;;;;4928414;29;20435;-87
2023/07/27 07:01:16;;;;;;;2.80;2.13;;;16.50;97.30;;;;;;4946679;29;22049;-87
2023/07/27 07:03:41;;;;;;;2.30;1.47;;;16.60;97.30;;;;;;4947585;29;20427;-87
2023/07/27 07:06:07;;;;;;;1.63;1.27;;;16.60;97.30;;;;;;4938026;29;20646;-87
2023/07/27 07:08:35;;;;;;;1.40;1.30;;;16.70;97.30;;;;;;4938170;28;20677;-87
2023/07/27 07:11:00;;;;;;;2.13;1.97;;;16.70;97.30;;;;;;4931684;29;20212;-87
2023/07/27 07:13:26;;;;;;;2.40;1.40;;;16.70;97.30;;;;;;4936455;29;20424;-87
2023/07/27 07:15:53;;;;;;;2.67;1.90;;;16.80;97.30;;;;;;4936086;29;20606;-87
2023/07/27 07:18:19;;;;;;;1.77;1.40;;;16.80;97.30;;;;;;4932746;29;20196;-87
2023/07/27 07:20:47;;;;;;;2.20;1.57;;;16.90;97.30;;;;;;4931653;29;20452;-87
2023/07/27 07:23:13;;;;;;;1.00;0.90;;;16.90;97.30;;;;;;4931754;29;20188;-87
2023/07/27 07:25:40;;;;;;;1.23;1.13;;;17.00;97.30;;;;;;4931961;29;20432;-87
2023/07/27 07:28:05;;;;;;;1.67;1.30;;;17.10;97.30;;;;;;4947239;29;20196;-87
2023/07/27 07:30:31;;;;;;;1.20;1.10;;;17.30;97.30;;;;;;4931455;29;20950;-87
2023/07/27 07:32:56;;;;;;;1.23;1.13;;;17.40;97.30;;;;;;4935166;29;20643;-86
2023/07/27 07:35:24;;;;;;;1.60;1.20;;;17.40;97.30;;;;;;4949553;29;20431;-87
2023/07/27 07:37:50;;;;;;;3.63;1.70;;;17.50;97.30;;;;;;4942674;29;20185;-87
2023/07/27 07:40:17;;;;;;;2.90;1.33;;;17.50;97.30;;;;;;4938325;29;20431;-86
2023/07/27 07:42:44;;;;;;;1.30;1.30;;;17.60;97.30;;;;;;4938799;29;20208;-86
2023/07/27 07:45:12;;;;;;;2.50;2.20;;;17.60;97.30;;;;;;4940673;29;20499;-87
2023/07/27 07:47:38;;;;;;;2.50;1.70;;;17.70;97.30;;;;;;4938316;29;21005;-87
2023/07/27 07:50:07;;;;;;;1.57;1.20;;;17.80;97.30;;;;;;4939014;29;20431;-87
2023/07/27 07:52:35;;;;;;;1.03;0.93;;;17.80;97.30;;;;;;4931165;29;20196;-87
2023/07/27 07:55:00;;;;;;;1.83;1.33;;;17.90;97.30;;;;;;4930946;29;20493;-87
2023/07/27 07:57:26;;;;;;;1.47;1.37;;;18.00;97.30;;;;;;4934637;29;20954;-87
2023/07/27 07:59:51;;;;;;;3.00;1.37;;;18.00;97.30;;;;;;4935259;28;20195;-87
2023/07/27 08:02:17;;;;;;;1.77;1.60;;;18.10;97.30;;;;;;4941165;29;20235;-87
2023/07/27 08:04:42;;;;;;;1.63;1.63;;;18.20;97.30;;;;;;4936381;29;20795;-87
2023/07/27 08:07:08;;;;;;;1.53;1.33;;;18.20;97.30;;;;;;4938488;29;20210;-87
2023/07/27 08:09:33;;;;;;;1.40;1.30;;;18.30;97.30;;;;;;4938529;29;20212;-87
2023/07/27 08:11:59;;;;;;;1.73;1.63;;;18.30;97.30;;;;;;4938613;29;20266;-87
2023/07/27 08:14:24;;;;;;;1.97;1.60;;;18.40;97.30;;;;;;4938562;29;20227;-88
2023/07/27 08:16:50;;;;;;;1.77;0.80;;;18.50;97.30;;;;;;4916240;29;20729;-87
2023/07/27 08:19:16;;;;;;;1.17;1.07;;;18.60;97.30;;;;;;4937830;28;20192;-87
2023/07/27 08:21:44;;;;;;;1.60;1.60;;;18.70;97.30;;;;;;4943527;29;20306;-87
2023/07/27 08:24:09;;;;;;;6.30;1.83;;;18.70;96.80;;;;;;4934836;29;20554;-87
2023/07/27 08:26:35;;;;;;;1.30;1.20;;;18.80;96.00;;;;;;4930051;29;20465;-88
2023/07/27 08:29:01;;;;;;;1.77;1.57;;;18.90;96.30;;;;;;4930397;28;20188;-87
2023/07/27 08:31:27;;;;;;;1.10;1.00;;;19.00;96.90;;;;;;4923671;29;20220;-87
2023/07/27 08:33:55;;;;;;;1.77;1.57;;;19.10;95.90;;;;;;4930288;29;20658;-87
2023/07/27 08:36:21;;;;;;;2.20;1.83;;;19.20;95.70;;;;;;4941897;29;20436;-87
2023/07/27 08:38:46;;;;;;;0.80;0.80;;;19.30;93.50;;;;;;4935274;29;20459;-87
2023/07/27 08:41:12;;;;;;;1.53;1.43;;;19.40;94.00;;;;;;4937759;29;20571;-87
2023/07/27 08:43:37;;;;;;;3.00;1.77;;;19.50;93.20;;;;;;4929804;29;20224;-87
2023/07/27 08:46:04;;;;;;;1.40;1.37;;;19.50;93.20;;;;;;4937976;29;20191;-87
2023/07/27 08:48:30;;;;;;;1.93;1.80;;;19.60;93.00;;;;;;4949188;29;20184;-87
2023/07/27 08:50:58;;;;;;;1.20;1.10;;;19.70;92.30;;;;;;4933867;28;20951;-88
2023/07/27 08:53:25;;;;;;;1.17;1.10;;;19.70;92.50;;;;;;4946025;29;20450;-87
2023/07/27 08:55:58;;;;;;;2.00;1.90;;;19.80;92.70;;;;;;4936182;29;20446;-88
2023/07/27 08:58:26;;;;;;;1.33;1.10;;;19.80;92.70;;;;;;4934920;29;20956;-87
2023/07/27 09:00:56;;;;;;;1.20;1.10;;;19.80;92.10;;;;;;4914744;29;20515;-87
2023/07/27 09:03:27;;;;;;;1.10;1.00;;;19.90;91.40;;;;;;4940009;29;20508;-87
2023/07/27 09:05:58;;;;;;;1.20;1.10;;;19.90;91.40;;;;;;4933868;29;20428;-87
2023/07/27 09:08:28;;;;;;;3.43;1.50;;;19.90;91.60;;;;;;4933635;29;20766;-87
2023/07/27 09:10:53;;;;;;;0.93;0.87;;;19.90;91.70;;;;;;4949218;29;20866;-87
2023/07/27 09:13:19;;;;;;;1.30;1.20;;;19.80;91.40;;;;;;4939104;29;20451;-87
2023/07/27 09:15:45;;;;;;;1.20;1.10;;;19.80;91.00;;;;;;4929918;29;20667;-87
2023/07/27 09:18:14;;;;;;;2.37;2.17;;;19.80;91.50;;;;;;4937878;29;20184;-86
2023/07/27 09:20:40;;;;;;;1.97;1.57;;;19.70;91.70;;;;;;4930879;29;20448;-87
2023/07/27 09:23:07;;;;;;;4.33;2.73;;;19.70;91.30;;;;;;4937706;29;20436;-87
2023/07/27 09:25:32;;;;;;;1.27;1.17;;;19.70;92.10;;;;;;4915879;29;20728;-87
2023/07/27 09:27:58;;;;;;;1.60;1.50;;;19.70;91.90;;;;;;4915426;29;20495;-87
2023/07/27 09:30:25;;;;;;;1.27;1.17;;;19.70;91.50;;;;;;4932704;29;20180;-87
2023/07/27 09:32:52;;;;;;;1.20;1.10;;;19.80;92.10;;;;;;4935794;29;20193;-87
2023/07/27 09:35:19;;;;;;;2.97;1.60;;;19.80;91.80;;;;;;4945517;29;20570;-87
2023/07/27 09:37:49;;;;;;;1.10;1.00;;;19.80;92.20;;;;;;4943431;29;20937;-87
2023/07/27 09:40:20;;;;;;;4.60;2.80;;;19.80;92.30;;;;;;4940046;29;20440;-87
2023/07/27 09:42:45;;;;;;;1.60;1.50;;;19.80;92.70;;;;;;4929381;29;20468;-87
2023/07/27 09:45:13;;;;;;;1.23;1.00;;;19.80;93.00;;;;;;4929459;29;20471;-87
2023/07/27 09:47:39;;;;;;;1.17;1.00;;;19.80;93.20;;;;;;4929497;29;20227;-87
2023/07/27 09:50:09;;;;;;;1.57;1.33;;;19.80;93.20;;;;;;4930328;29;20506;-87
2023/07/27 09:52:36;;;;;;;2.93;2.37;;;19.80;93.00;;;;;;4944345;29;20471;-87
2023/07/27 09:55:01;;;;;;;1.30;1.20;;;19.80;93.70;;;;;;4929194;29;20421;-87
2023/07/27 09:57:27;;;;;;;2.60;1.40;;;19.80;94.50;;;;;;4929075;29;20951;-87
2023/07/27 09:59:53;;;;;;;7.00;2.10;;;19.60;93.90;;;;;;4928893;29;20220;-87
2023/07/27 10:02:20;;;;;;;1.10;1.00;;;19.60;94.20;;;;;;4936603;29;20263;-87
2023/07/27 10:04:49;;;;;;;1.10;1.00;;;19.60;94.60;;;;;;4914526;29;20416;-87
2023/07/27 10:07:16;;;;;;;2.60;1.73;;;19.50;94.60;;;;;;4928806;29;20476;-87
2023/07/27 10:09:42;;;;;;;1.00;0.90;;;19.50;94.10;;;;;;4936565;29;20445;-87
2023/07/27 10:12:07;;;;;;;1.10;1.00;;;19.60;93.40;;;;;;4936615;29;20572;-87
2023/07/27 10:14:35;;;;;;;4.13;2.00;;;19.60;93.50;;;;;;4920890;29;20180;-88
2023/07/27 10:17:08;;;;;;;1.87;1.03;;;19.70;94.30;;;;;;4944312;28;20195;-88
2023/07/27 10:19:44;;;;;;;0.90;0.80;;;19.80;94.30;;;;;;4914068;29;20427;-87
2023/07/27 10:22:14;;;;;;;1.20;1.10;;;19.80;94.00;;;;;;4944599;29;20479;-88
2023/07/27 10:24:48;;;;;;;1.30;1.20;;;19.80;93.60;;;;;;4941199;28;20428;-87
2023/07/27 10:27:14;;;;;;;1.00;0.90;;;19.90;93.70;;;;;;4935981;29;20463;-87
2023/07/27 10:29:45;;;;;;;1.50;1.40;;;19.90;93.40;;;;;;4927395;29;20495;-88
2023/07/27 10:32:18;;;;;;;1.80;1.70;;;20.00;94.80;;;;;;4936897;29;20200;-88
2023/07/27 10:34:57;;;;;;;1.10;1.00;;;20.00;94.50;;;;;;4935097;29;20431;-89
2023/07/27 10:37:23;;;;;;;3.23;1.30;;;20.00;94.80;;;;;;4927204;29;20931;-89
2023/07/27 10:39:52;;;;;;;1.40;1.37;;;20.00;95.10;;;;;;4933747;29;20424;-89
2023/07/27 10:42:27;;;;;;;1.53;1.03;;;19.90;95.70;;;;;;4931932;29;20232;-88
2023/07/27 10:44:57;;;;;;;2.20;2.03;;;19.80;95.60;;;;;;4923480;29;20416;-89
2023/07/27 10:47:23;;;;;;;2.77;2.33;;;19.80;96.20;;;;;;4941702;29;20455;-88
2023/07/27 10:49:55;;;;;;;1.30;1.20;;;19.70;96.60;;;;;;4938261;28;20424;-89
2023/07/27 10:52:27;;;;;;;4.37;2.90;;;19.70;97.30;;;;;;4932120;29;20440;-89
2023/07/27 10:55:14;;;;;;;1.93;1.47;;;19.70;97.30;;;;;;4940750;28;20759;-89
2023/07/27 10:57:40;;;;;;;2.33;2.03;;;19.60;97.30;;;;;;4925642;28;20424;-89
2023/07/27 11:00:08;;;;;;;1.20;1.20;;;19.50;97.30;;;;;;4932403;29;20962;-89
2023/07/27 11:02:33;;;;;;;1.27;1.10;;;19.40;97.30;;;;;;4931488;29;21018;-88
2023/07/27 11:05:00;;;;;;;1.83;1.43;;;19.40;97.30;;;;;;4939871;29;20516;-88
2023/07/27 11:07:34;;;;;;;1.10;1.00;;;19.20;97.30;;;;;;4940145;29;20243;-89
2023/07/27 11:10:06;;;;;;;1.30;1.20;;;19.00;97.30;;;;;;4931909;29;20469;-88
2023/07/27 11:12:44;;;;;;;2.10;1.47;;;18.90;97.30;;;;;;4931615;29;20456;-88
2023/07/27 11:15:21;;;;;;;1.33;1.00;;;18.80;97.30;;;;;;4939799;29;20424;-89
2023/07/27 11:17:52;;;;;;;2.00;1.77;;;18.60;97.30;;;;;;4925013;29;20912;-88
2023/07/27 11:20:20;;;;;;;1.67;1.50;;;18.60;97.30;;;;;;4931682;29;20423;-89
2023/07/27 11:22:47;;;;;;;2.07;1.40;;;18.50;97.30;;;;;;4931665;29;20849;-89
2023/07/27 11:25:13;;;;;;;2.90;2.10;;;18.40;97.30;;;;;;4931735;29;20436;-89
2023/07/27 11:27:39;;;;;;;1.40;1.40;;;18.30;97.30;;;;;;4939565;29;20994;-90
2023/07/27 11:30:12;;;;;;;2.33;1.83;;;18.30;97.30;;;;;;4931642;29;20272;-88
2023/07/27 11:32:38;;;;;;;1.70;1.47;;;18.20;97.30;;;;;;4939647;29;21033;-89
2023/07/27 11:35:07;;;;;;;1.87;1.70;;;18.20;97.30;;;;;;4938089;29;20431;-89
2023/07/27 11:37:33;;;;;;;1.27;1.10;;;18.20;97.30;;;;;;4932708;29;20431;-89
2023/07/27 11:39:59;;;;;;;1.37;1.27;;;18.10;97.30;;;;;;4945330;29;20444;-89
2023/07/27 11:42:29;;;;;;;1.67;1.57;;;18.00;97.30;;;;;;4943579;29;20231;-89
2023/07/27 11:44:59;;;;;;;1.93;1.83;;;18.00;97.30;;;;;;4922780;29;20728;-89
2023/07/27 11:47:38;;;;;;;4.23;2.43;;;17.90;97.30;;;;;;4915422;29;20552;-90
2023/07/27 11:50:08;;;;;;;6.13;1.77;;;17.90;97.30;;;;;;4925585;29;20928;-89
2023/07/27 11:52:37;;;;;;;1.73;1.57;;;17.90;97.30;;;;;;4922696;29;20536;-88
2023/07/27 11:55:03;;;;;;;1.93;1.47;;;17.90;97.30;;;;;;4932645;29;20440;-89
2023/07/27 11:57:30;;;;;;;1.37;1.17;;;18.00;97.30;;;;;;4917923;29;20425;-89
2023/07/27 12:00:12;;;;;;;1.30;1.20;;;17.90;97.30;;;;;;4935174;29;20180;-89
2023/07/27 12:02:45;;;;;;;1.80;1.70;;;17.90;97.30;;;;;;4919986;29;20842;-89
2023/07/27 12:05:15;;;;;;;1.43;1.33;;;17.80;97.30;;;;;;4929015;29;20436;-89
2023/07/27 12:07:41;;;;;;;2.27;1.10;;;17.80;97.30;;;;;;4927102;29;20468;-89
2023/07/27 12:10:17;;;;;;;2.53;2.00;;;17.70;97.30;;;;;;4932621;29;20488;-89
2023/07/27 12:13:06;;;;;;;3.73;1.77;;;17.70;97.30;;;;;;4912919;29;20476;-89
2023/07/27 12:15:34;;;;;;;1.60;1.50;;;17.70;97.30;;;;;;4922022;29;20431;-89
2023/07/27 12:18:02;;;;;;;1.50;1.20;;;17.60;97.30;;;;;;4922667;29;20513;-89
2023/07/27 12:20:29;;;;;;;2.13;1.80;;;17.70;97.30;;;;;;4923122;29;20433;-89
2023/07/27 12:22:56;;;;;;;3.83;2.27;;;17.70;97.30;;;;;;4937393;29;20819;-89
2023/07/27 12:25:22;;;;;;;2.07;1.93;;;17.70;97.30;;;;;;4942928;29;20459;-90
2023/07/27 12:27:47;;;;;;;2.97;1.43;;;17.70;97.30;;;;;;4929430;29;20494;-89
2023/07/27 12:30:14;;;;;;;1.77;1.67;;;17.70;97.30;;;;;;4943845;29;20184;-90
2023/07/27 12:32:40;;;;;;;2.27;2.13;;;17.70;97.30;;;;;;4951788;29;20203;-89
2023/07/27 12:35:06;;;;;;;1.60;1.50;;;17.70;97.30;;;;;;4951780;28;20522;-89
2023/07/27 12:37:32;;;;;;;1.50;1.40;;;17.70;97.30;;;;;;4949389;29;20188;-89
2023/07/27 12:39:57;;;;;;;1.90;1.80;;;17.70;97.30;;;;;;4935933;29;20192;-88
2023/07/27 12:42:24;;;;;;;2.73;2.13;;;17.70;97.30;;;;;;4948405;29;20451;-90
2023/07/27 12:44:50;;;;;;;2.17;2.00;;;17.60;97.30;;;;;;4951028;28;20279;-91
2023/07/27 12:47:15;;;;;;;1.50;1.20;;;17.60;97.30;;;;;;4951277;29;20550;-91
2023/07/27 12:49:41;;;;;;;1.87;1.57;;;17.60;97.30;;;;;;4940185;29;20425;-91
2023/07/27 12:52:06;;;;;;;13.13;2.87;;;17.60;97.30;;;;;;4945724;28;20686;-91
2023/07/27 12:54:32;;;;;;;3.37;1.93;;;17.60;97.30;;;;;;4949238;29;20184;-90
2023/07/27 12:56:58;;;;;;;2.13;1.63;;;17.70;97.30;;;;;;4944712;29;20188;-90
2023/07/27 12:59:25;;;;;;;2.23;2.03;;;17.70;97.30;;;;;;4942589;29;20184;-90
2023/07/27 13:01:51;;;;;;;3.63;2.20;;;17.70;97.30;;;;;;4936394;29;20765;-89
2023/07/27 13:04:17;;;;;;;1.60;1.50;;;17.70;97.30;;;;;;4942532;28;20431;-89
2023/07/27 13:06:42;;;;;;;1.57;1.47;;;17.60;97.30;;;;;;4925495;29;20196;-87
2023/07/27 13:09:08;;;;;;;2.10;1.60;;;17.60;97.30;;;;;;4916870;29;20184;-88
2023/07/27 13:11:34;;;;;;;1.30;1.20;;;17.50;97.30;;;;;;4944906;28;20196;-89
2023/07/27 13:14:00;;;;;;;2.50;1.73;;;17.40;97.30;;;;;;4918723;29;20239;-88
2023/07/27 13:16:26;;;;;;;1.60;1.50;;;17.30;97.30;;;;;;4922247;29;20435;-88
2023/07/27 13:18:52;;;;;;;3.43;1.30;;;17.30;97.30;;;;;;4935964;29;20423;-88
2023/07/27 13:21:17;;;;;;;3.30;1.63;;;17.20;97.30;;;;;;4936803;28;20218;-89
2023/07/27 13:23:43;;;;;;;2.73;2.30;;;17.20;97.30;;;;;;4921920;29;20571;-88
2023/07/27 13:26:08;;;;;;;2.10;1.77;;;17.20;97.30;;;;;;4939599;28;20185;-89
2023/07/27 13:28:34;;;;;;;3.30;2.50;;;17.20;97.30;;;;;;4941317;28;20701;-89
2023/07/27 13:31:00;;;;;;;1.57;1.20;;;17.20;97.30;;;;;;4939426;29;20232;-91
2023/07/27 13:33:26;;;;;;;1.53;1.40;;;17.20;97.30;;;;;;4939567;28;20420;-86
2023/07/27 13:35:52;;;;;;;4.33;2.43;;;17.20;97.30;;;;;;4928523;29;20550;-87
2023/07/27 13:38:18;;;;;;;1.57;1.47;;;17.20;97.30;;;;;;4939723;28;20405;-89
2023/07/27 13:40:44;;;;;;;2.10;1.97;;;17.20;97.30;;;;;;4944309;28;20439;-89
2023/07/27 13:43:10;;;;;;;0.97;0.93;;;17.20;97.30;;;;;;4936799;29;20461;-90
2023/07/27 13:45:35;;;;;;;3.93;1.50;;;17.30;97.30;;;;;;4943912;28;20228;-89
2023/07/27 13:48:01;;;;;;;2.07;1.93;;;17.30;97.30;;;;;;4921703;29;20247;-89
2023/07/27 13:50:27;;;;;;;2.10;1.83;;;17.30;97.30;;;;;;4941771;28;20807;-88
2023/07/27 13:52:52;;;;;;;1.47;1.30;;;17.20;97.30;;;;;;4936055;29;21312;-88
2023/07/27 13:55:18;;;;;;;2.87;2.73;;;17.20;97.30;;;;;;4911013;29;20220;-88
2023/07/27 13:57:43;;;;;;;1.43;1.37;;;17.10;97.30;;;;;;4910763;29;20180;-88
2023/07/27 14:00:10;;;;;;;2.50;2.33;;;17.10;97.30;;;;;;4910369;29;20541;-89
2023/07/27 14:02:36;;;;;;;1.47;1.37;;;17.10;97.30;;;;;;4910992;29;20232;-88
2023/07/27 14:05:02;;;;;;;1.40;1.40;;;17.10;97.30;;;;;;4924103;29;20778;-88
2023/07/27 14:07:27;;;;;;;8.00;2.40;;;17.00;97.30;;;;;;4905403;29;20382;-89
2023/07/27 14:09:53;;;;;;;4.33;2.70;;;17.00;97.30;;;;;;4908629;29;20500;-88
2023/07/27 14:12:19;;;;;;;1.73;1.63;;;17.00;97.30;;;;;;4921866;29;20196;-88
2023/07/27 14:14:44;;;;;;;2.60;1.90;;;16.90;97.30;;;;;;4912432;29;20176;-88
2023/07/27 14:17:10;;;;;;;2.10;1.87;;;16.90;97.30;;;;;;4913435;29;20211;-88
2023/07/27 14:19:36;;;;;;;8.73;3.00;;;16.90;97.30;;;;;;4913015;29;20189;-88
2023/07/27 14:22:01;;;;;;;1.50;1.23;;;16.90;97.30;;;;;;4923946;28;20200;-90
2023/07/27 14:24:27;;;;;;;1.73;1.67;;;16.90;97.30;;;;;;4924739;29;20875;-89
2023/07/27 14:26:52;;;;;;;1.83;1.50;;;16.90;97.30;;;;;;4912890;29;20217;-89
2023/07/27 14:29:18;;;;;;;1.77;1.73;;;16.90;97.30;;;;;;4908257;29;20208;-90
2023/07/27 14:31:43;;;;;;;1.50;1.40;;;16.90;97.30;;;;;;4924302;29;20196;-88
2023/07/27 14:34:10;;;;;;;7.23;2.73;;;16.90;97.30;;;;;;4924222;28;20212;-88
2023/07/27 14:36:35;;;;;;;1.63;1.40;;;16.90;97.30;;;;;;4924757;29;20192;-88
2023/07/27 14:39:01;;;;;;;2.53;2.37;;;16.90;97.30;;;;;;4914458;29;20432;-88
2023/07/27 14:41:27;;;;;;;2.80;2.60;;;16.90;97.30;;;;;;4923762;28;20307;-87
2023/07/27 14:43:52;;;;;;;4.70;2.10;;;16.90;97.30;;;;;;4912255;29;20184;-88
2023/07/27 14:46:18;;;;;;;3.77;2.83;;;16.90;97.30;;;;;;4912281;29;21026;-88
2023/07/27 14:48:44;;;;;;;2.33;2.10;;;16.90;97.30;;;;;;4924622;28;20608;-89
2023/07/27 14:51:10;;;;;;;2.17;1.80;;;16.90;97.30;;;;;;4912178;29;20826;-88
2023/07/27 14:53:35;;;;;;;4.30;2.33;;;16.90;97.30;;;;;;4914284;29;20181;-88
2023/07/27 14:56:01;;;;;;;5.60;3.43;;;16.90;97.30;;;;;;4930424;29;20188;-88
2023/07/27 14:58:27;;;;;;;6.30;2.13;;;16.90;97.30;;;;;;4914154;29;20184;-89
2023/07/27 15:00:53;;;;;;;3.23;2.50;;;16.90;97.30;;;;;;4924203;29;20295;-88
2023/07/27 15:03:19;;;;;;;5.90;2.63;;;16.90;97.30;;;;;;4916570;29;20496;-88
2023/07/27 15:05:45;;;;;;;1.70;1.60;;;16.80;97.30;;;;;;4910733;29;20436;-88
2023/07/27 15:08:10;;;;;;;2.20;2.07;;;16.80;97.30;;;;;;4914697;29;20208;-88
2023/07/27 15:10:36;;;;;;;5.03;3.07;;;16.90;97.30;;;;;;4908597;29;20175;-87
2023/07/27 15:13:04;;;;;;;2.47;1.80;;;16.90;97.30;;;;;;4914655;29;20207;-87
2023/07/27 15:15:33;;;;;;;2.63;1.40;;;16.90;97.30;;;;;;4915155;29;20184;-87
2023/07/27 15:17:59;;;;;;;3.83;2.30;;;16.90;97.30;;;;;;4912814;29;20425;-87
2023/07/27 15:20:24;;;;;;;3.20;2.50;;;16.90;97.30;;;;;;4918496;29;20436;-89
2023/07/27 15:22:50;;;;;;;2.30;2.17;;;16.90;97.30;;;;;;4915011;29;20184;-88
2023/07/27 15:25:16;;;;;;;3.90;2.13;;;16.90;97.30;;;;;;4913282;29;20191;-88
2023/07/27 15:27:42;;;;;;;2.80;2.00;;;16.90;97.30;;;;;;4924308;29;20590;-88
2023/07/27 15:30:07;;;;;;;1.37;1.27;;;16.90;97.30;;;;;;4917553;29;20428;-88
2023/07/27 15:32:33;;;;;;;1.77;1.67;;;17.00;97.30;;;;;;4929279;28;20197;-88
2023/07/27 15:34:58;;;;;;;2.00;1.90;;;17.00;97.30;;;;;;4933247;29;20184;-89
2023/07/27 15:37:24;;;;;;;1.63;1.53;;;17.00;97.30;;;;;;4932559;29;20233;-87
2023/07/27 15:39:49;;;;;;;1.93;1.83;;;17.00;97.30;;;;;;4932735;29;20580;-87
2023/07/27 15:42:17;;;;;;;1.40;1.30;;;17.00;97.30;;;;;;4924930;29;20542;-88
2023/07/27 15:44:47;;;;;;;1.87;1.77;;;17.00;97.30;;;;;;4928806;29;20188;-88
2023/07/27 15:47:13;;;;;;;2.27;1.90;;;17.00;97.30;;;;;;4927500;28;20536;-87
2023/07/27 15:49:39;;;;;;;2.60;2.40;;;17.00;97.30;;;;;;4916352;29;20454;-88
2023/07/27 15:52:07;;;;;;;1.40;1.40;;;17.10;97.30;;;;;;4934327;29;20219;-87
2023/07/27 15:54:33;;;;;;;3.27;1.83;;;17.10;97.30;;;;;;4928698;29;20180;-87
2023/07/27 15:56:58;;;;;;;10.30;2.80;;;17.10;97.30;;;;;;4920771;29;20710;-87
2023/07/27 15:59:24;;;;;;;2.50;1.13;;;17.20;97.30;;;;;;4931626;29;20714;-87
2023/07/27 16:01:49;;;;;;;3.07;1.60;;;17.20;97.30;;;;;;4937616;29;20264;-87
2023/07/27 16:04:15;;;;;;;1.50;1.40;;;17.20;97.30;;;;;;4930144;29;20240;-85
2023/07/27 16:06:41;;;;;;;1.50;1.50;;;17.20;97.30;;;;;;4909723;29;20216;-88
2023/07/27 16:09:06;;;;;;;1.37;1.27;;;17.20;97.30;;;;;;4928871;29;20192;-88
2023/07/27 16:11:34;;;;;;;1.60;1.57;;;17.20;97.30;;;;;;4914837;29;20204;-88
2023/07/27 16:13:59;;;;;;;1.37;1.27;;;17.20;97.30;;;;;;4927155;29;20181;-88
2023/07/27 16:16:25;;;;;;;2.33;2.13;;;17.20;97.30;;;;;;4916675;29;20435;-88
2023/07/27 16:18:50;;;;;;;1.50;1.40;;;17.20;97.30;;;;;;4930267;29;20196;-87
2023/07/27 16:21:18;;;;;;;2.90;2.23;;;17.20;97.30;;;;;;4929577;29;20204;-88
2023/07/27 16:23:44;;;;;;;1.00;1.00;;;17.20;97.30;;;;;;4915953;29;20180;-87
2023/07/27 16:26:09;;;;;;;1.40;1.30;;;17.20;97.30;;;;;;4923547;29;20730;-85
2023/07/27 16:28:35;;;;;;;3.23;1.60;;;17.20;97.30;;;;;;4910423;29;20177;-86
2023/07/27 16:31:01;;;;;;;0.93;0.83;;;17.20;97.30;;;;;;4916781;29;20200;-87
2023/07/27 16:33:26;;;;;;;1.10;1.00;;;17.20;97.30;;;;;;4917762;29;20522;-86
2023/07/27 16:35:57;;;;;;;1.10;1.00;;;17.10;97.30;;;;;;4921305;29;20639;-86
2023/07/27 16:38:22;;;;;;;1.63;1.40;;;17.10;97.30;;;;;;4922428;29;20196;-86
2023/07/27 16:40:52;;;;;;;1.00;0.90;;;17.10;97.30;;;;;;4917593;29;20531;-87
2023/07/27 16:43:18;;;;;;;1.30;1.20;;;17.10;97.30;;;;;;4926864;29;20190;-85
2023/07/27 16:45:44;;;;;;;2.00;1.23;;;17.10;97.30;;;;;;4925499;29;20433;-85